createdAt,value
2018-02-07T00:00:38.662Z,1.20
2018-02-07T00:01:38.685Z,1.10
2018-02-07T00:02:38.672Z,1.10
2018-02-07T00:03:38.721Z,1.10
2018-02-07T00:04:38.678Z,1.20
2018-02-07T00:05:38.686Z,1.30
2018-02-07T00:06:38.686Z,1.00
2018-02-07T00:07:38.695Z,1.30
2018-02-07T00:08:38.692Z,1.40
2018-02-07T00:09:38.714Z,1.50
2018-02-07T00:10:38.713Z,1.20
2018-02-07T00:11:38.712Z,1.90
2018-02-07T00:12:38.714Z,1.10
2018-02-07T00:13:38.714Z,1.10
2018-02-07T00:14:38.720Z,1.10
2018-02-07T00:15:38.725Z,1.10
2018-02-07T00:16:38.725Z,1.10
2018-02-07T00:17:38.734Z,1.60
2018-02-07T00:18:38.738Z,1.10
2018-02-07T00:19:38.735Z,1.10
2018-02-07T00:20:38.749Z,1.10
2018-02-07T00:21:38.748Z,1.80
2018-02-07T00:22:38.745Z,1.10
2018-02-07T00:23:38.750Z,1.20
2018-02-07T00:24:38.784Z,1.10
2018-02-07T00:25:38.900Z,1.00
2018-02-07T00:26:38.774Z,3.20
2018-02-07T00:27:38.770Z,1.30
2018-02-07T00:28:38.774Z,1.00
2018-02-07T00:29:38.782Z,1.10
2018-02-07T00:30:38.781Z,1.10
2018-02-07T00:31:38.786Z,1.10
2018-02-07T00:32:38.791Z,1.10
2018-02-07T00:33:38.794Z,1.10
2018-02-07T00:34:38.799Z,1.50
2018-02-07T00:35:38.796Z,1.60
2018-02-07T00:36:38.807Z,1.10
2018-02-07T00:37:38.806Z,1.20
2018-02-07T00:38:38.810Z,1.00
2018-02-07T00:39:38.809Z,1.10
2018-02-07T00:40:38.814Z,2.50
2018-02-07T00:41:38.819Z,1.20
2018-02-07T00:42:38.825Z,1.20
2018-02-07T00:43:38.825Z,1.10
2018-02-07T00:44:38.830Z,1.20
2018-02-07T00:45:38.838Z,1.80
2018-02-07T00:46:38.838Z,1.10
2018-02-07T00:47:38.844Z,1.80
2018-02-07T00:48:38.843Z,1.20
2018-02-07T00:49:38.847Z,1.30
2018-02-07T00:50:38.855Z,1.20
2018-02-07T00:51:38.857Z,1.20
2018-02-07T00:52:38.863Z,1.30
2018-02-07T00:53:38.871Z,1.20
2018-02-07T00:54:38.868Z,1.10
2018-02-07T00:55:38.867Z,1.20
2018-02-07T00:56:38.872Z,1.50
2018-02-07T00:57:38.880Z,1.20
2018-02-07T00:58:38.883Z,1.10
2018-02-07T00:59:38.894Z,1.10
2018-02-07T01:00:38.892Z,1.20
2018-02-07T01:01:38.889Z,1.10
2018-02-07T01:02:38.898Z,1.20
2018-02-07T01:03:38.895Z,1.30
2018-02-07T01:04:38.901Z,1.10
2018-02-07T01:05:38.909Z,1.10
2018-02-07T01:06:38.905Z,1.40
2018-02-07T01:07:38.914Z,1.30
2018-02-07T01:08:38.916Z,1.20
2018-02-07T01:09:38.925Z,1.20
2018-02-07T01:10:38.919Z,1.30
2018-02-07T01:11:38.927Z,1.30
2018-02-07T01:12:38.926Z,1.20
2018-02-07T01:13:38.929Z,1.20
2018-02-07T01:14:38.935Z,1.20
2018-02-07T01:15:38.936Z,1.40
2018-02-07T01:16:38.944Z,1.10
2018-02-07T01:17:38.943Z,1.10
2018-02-07T01:18:38.980Z,1.10
2018-02-07T01:19:38.954Z,1.30
2018-02-07T01:20:38.952Z,1.40
2018-02-07T01:21:38.961Z,1.30
2018-02-07T01:22:38.963Z,1.30
2018-02-07T01:23:38.968Z,1.50
2018-02-07T01:24:38.965Z,1.60
2018-02-07T01:25:38.968Z,1.30
2018-02-07T01:26:38.972Z,1.30
2018-02-07T01:27:38.986Z,1.30
2018-02-07T01:28:38.983Z,1.40
2018-02-07T01:29:38.985Z,1.50
2018-02-07T01:30:38.988Z,1.60
2018-02-07T01:31:38.993Z,1.20
2018-02-07T01:32:38.993Z,1.40
2018-02-07T01:33:38.997Z,1.30
2018-02-07T01:34:39.005Z,1.10
2018-02-07T01:35:39.004Z,1.10
2018-02-07T01:36:39.013Z,1.30
2018-02-07T01:37:39.013Z,1.20
2018-02-07T01:38:39.020Z,1.40
2018-02-07T01:39:39.017Z,1.80
2018-02-07T01:40:39.027Z,1.10
2018-02-07T01:41:39.031Z,1.30
2018-02-07T01:42:39.034Z,1.10
2018-02-07T01:43:39.032Z,1.30
2018-02-07T01:44:39.042Z,1.20
2018-02-07T01:45:39.039Z,1.10
2018-02-07T01:46:39.044Z,1.40
2018-02-07T01:47:39.046Z,1.40
2018-02-07T01:48:39.056Z,1.20
2018-02-07T01:49:39.059Z,1.30
2018-02-07T01:50:39.057Z,1.10
2018-02-07T01:51:39.062Z,1.30
2018-02-07T01:52:39.067Z,1.20
2018-02-07T01:53:39.073Z,1.20
2018-02-07T01:54:39.117Z,1.20
2018-02-07T01:55:39.077Z,1.30
2018-02-07T01:56:39.085Z,1.40
2018-02-07T01:57:39.083Z,1.20
2018-02-07T01:58:39.091Z,1.20
2018-02-07T01:59:39.089Z,1.20
2018-02-07T02:00:39.100Z,1.10
2018-02-07T02:01:39.103Z,1.30
2018-02-07T02:02:39.099Z,1.20
2018-02-07T02:03:39.104Z,1.10
2018-02-07T02:04:39.106Z,1.30
2018-02-07T02:05:39.113Z,1.40
2018-02-07T02:06:39.120Z,1.10
2018-02-07T02:07:39.123Z,1.70
2018-02-07T02:08:39.122Z,1.30
2018-02-07T02:09:39.131Z,2.00
2018-02-07T02:10:39.130Z,1.10
2018-02-07T02:11:39.138Z,1.20
2018-02-07T02:12:39.138Z,1.50
2018-02-07T02:13:39.141Z,1.10
2018-02-07T02:14:39.144Z,1.30
2018-02-07T02:15:39.155Z,1.10
2018-02-07T02:16:39.159Z,1.80
2018-02-07T02:17:39.158Z,1.10
2018-02-07T02:18:39.164Z,1.20
2018-02-07T02:19:39.161Z,1.40
2018-02-07T02:20:39.171Z,1.10
2018-02-07T02:21:39.176Z,1.80
2018-02-07T02:22:39.179Z,1.50
2018-02-07T02:23:39.182Z,1.10
2018-02-07T02:24:39.180Z,1.40
2018-02-07T02:25:39.190Z,1.10
2018-02-07T02:26:39.193Z,1.20
2018-02-07T02:27:39.195Z,1.20
2018-02-07T02:28:39.201Z,3.70
2018-02-07T02:29:39.204Z,1.20
2018-02-07T02:30:39.203Z,1.10
2018-02-07T02:31:39.212Z,1.40
2018-02-07T02:32:39.220Z,1.80
2018-02-07T02:33:39.219Z,1.10
2018-02-07T02:34:39.216Z,1.40
2018-02-07T02:35:39.226Z,1.00
2018-02-07T02:36:39.230Z,1.30
2018-02-07T02:37:39.234Z,1.00
2018-02-07T02:38:39.237Z,2.20
2018-02-07T02:39:39.235Z,1.30
2018-02-07T02:40:39.239Z,1.70
2018-02-07T02:41:39.244Z,1.30
2018-02-07T02:42:39.254Z,1.30
2018-02-07T02:43:39.249Z,1.20
2018-02-07T02:44:39.260Z,1.30
2018-02-07T02:45:39.258Z,1.10
2018-02-07T02:46:39.261Z,1.20
2018-02-07T02:47:39.269Z,1.10
2018-02-07T02:48:39.275Z,1.30
2018-02-07T02:49:39.272Z,1.20
2018-02-07T02:50:39.277Z,1.10
2018-02-07T02:51:39.282Z,1.20
2018-02-07T02:52:39.284Z,1.30
2018-02-07T02:53:39.286Z,1.10
2018-02-07T02:54:39.302Z,1.50
2018-02-07T02:55:39.298Z,1.20
2018-02-07T02:56:39.297Z,1.30
2018-02-07T02:57:39.301Z,1.30
2018-02-07T02:58:39.306Z,1.30
2018-02-07T02:59:39.314Z,1.20
2018-02-07T03:00:39.314Z,1.50
2018-02-07T03:01:39.322Z,1.30
2018-02-07T03:02:39.325Z,1.20
2018-02-07T03:03:39.328Z,1.20
2018-02-07T03:04:39.332Z,1.10
2018-02-07T03:05:39.330Z,1.10
2018-02-07T03:06:39.335Z,1.40
2018-02-07T03:07:39.344Z,1.20
2018-02-07T03:08:39.341Z,1.10
2018-02-07T03:09:39.351Z,1.00
2018-02-07T03:10:39.349Z,1.10
2018-02-07T03:11:39.358Z,1.30
2018-02-07T03:12:39.356Z,1.30
2018-02-07T03:13:39.360Z,1.30
2018-02-07T03:14:39.368Z,2.10
2018-02-07T03:15:39.374Z,1.10
2018-02-07T03:16:39.376Z,1.10
2018-02-07T03:17:39.375Z,1.30
2018-02-07T03:18:39.379Z,1.30
2018-02-07T03:19:39.382Z,1.20
2018-02-07T03:20:39.393Z,1.40
2018-02-07T03:21:39.389Z,1.10
2018-02-07T03:22:39.398Z,2.50
2018-02-07T03:23:39.402Z,1.60
2018-02-07T03:24:39.400Z,1.30
2018-02-07T03:25:39.406Z,1.30
2018-02-07T03:26:39.413Z,1.40
2018-02-07T03:27:39.411Z,1.20
2018-02-07T03:28:39.419Z,1.90
2018-02-07T03:29:39.424Z,1.00
2018-02-07T03:30:39.426Z,1.30
2018-02-07T03:31:39.425Z,1.20
2018-02-07T03:32:39.430Z,1.20
2018-02-07T03:33:39.439Z,1.20
2018-02-07T03:34:39.434Z,2.90
2018-02-07T03:35:39.440Z,1.30
2018-02-07T03:36:39.449Z,1.30
2018-02-07T03:37:39.451Z,1.30
2018-02-07T03:38:39.457Z,1.20
2018-02-07T03:39:39.453Z,1.40
2018-02-07T03:40:39.457Z,1.30
2018-02-07T03:41:39.467Z,1.20
2018-02-07T03:42:39.472Z,1.30
2018-02-07T03:43:39.469Z,1.20
2018-02-07T03:44:39.478Z,1.20
2018-02-07T03:45:39.477Z,1.20
2018-02-07T03:46:39.478Z,1.10
2018-02-07T03:47:39.484Z,1.60
2018-02-07T03:48:39.493Z,1.50
2018-02-07T03:49:39.497Z,1.20
2018-02-07T03:50:39.499Z,1.20
2018-02-07T03:51:39.503Z,1.30
2018-02-07T03:52:39.501Z,1.30
2018-02-07T03:53:39.514Z,1.30
2018-02-07T03:54:39.513Z,1.20
2018-02-07T03:55:39.519Z,1.20
2018-02-07T03:56:39.523Z,1.60
2018-02-07T03:57:39.526Z,1.10
2018-02-07T03:58:39.528Z,1.20
2018-02-07T03:59:39.532Z,1.10
2018-02-07T04:00:39.531Z,1.20
2018-02-07T04:01:39.534Z,1.40
2018-02-07T04:02:39.536Z,1.30
2018-02-07T04:03:39.544Z,1.30
2018-02-07T04:04:39.550Z,1.20
2018-02-07T04:05:39.554Z,1.40
2018-02-07T04:06:39.558Z,1.10
2018-02-07T04:07:39.555Z,2.20
2018-02-07T04:08:39.558Z,1.20
2018-02-07T04:09:39.563Z,1.20
2018-02-07T04:10:39.569Z,1.30
2018-02-07T04:11:39.568Z,2.00
2018-02-07T04:12:39.579Z,1.10
2018-02-07T04:13:39.586Z,1.10
2018-02-07T04:14:39.586Z,1.20
2018-02-07T04:15:39.584Z,1.30
2018-02-07T04:16:39.587Z,1.40
2018-02-07T04:17:39.596Z,1.20
2018-02-07T04:18:39.601Z,1.20
2018-02-07T04:19:39.603Z,1.30
2018-02-07T04:20:39.601Z,1.30
2018-02-07T04:21:39.605Z,1.30
2018-02-07T04:22:39.613Z,1.10
2018-02-07T04:23:39.612Z,1.20
2018-02-07T04:24:39.620Z,1.20
2018-02-07T04:25:39.619Z,1.20
2018-02-07T04:26:39.622Z,1.30
2018-02-07T04:27:39.626Z,1.00
2018-02-07T04:28:39.634Z,1.30
2018-02-07T04:29:39.638Z,1.10
2018-02-07T04:30:39.636Z,1.30
2018-02-07T04:31:39.640Z,1.10
2018-02-07T04:32:39.648Z,1.20
2018-02-07T04:33:39.652Z,1.20
2018-02-07T04:34:39.649Z,1.20
2018-02-07T04:35:39.652Z,1.30
2018-02-07T04:36:39.657Z,1.20
2018-02-07T04:37:39.659Z,2.00
2018-02-07T04:38:39.667Z,1.20
2018-02-07T04:39:39.673Z,1.30
2018-02-07T04:40:39.670Z,1.30
2018-02-07T04:41:39.674Z,1.30
2018-02-07T04:42:39.683Z,1.20
2018-02-07T04:43:39.687Z,1.30
2018-02-07T04:44:39.689Z,1.10
2018-02-07T04:45:39.692Z,1.20
2018-02-07T04:46:39.699Z,2.60
2018-02-07T04:47:39.699Z,1.50
2018-02-07T04:48:39.705Z,1.30
2018-02-07T04:49:39.703Z,1.30
2018-02-07T04:50:39.711Z,1.50
2018-02-07T04:51:39.712Z,1.40
2018-02-07T04:52:39.719Z,1.20
2018-02-07T04:53:39.720Z,1.20
2018-02-07T04:54:39.724Z,1.50
2018-02-07T04:55:39.725Z,1.10
2018-02-07T04:56:39.724Z,1.20
2018-02-07T04:57:39.732Z,1.20
2018-02-07T04:58:39.736Z,1.20
2018-02-07T04:59:39.735Z,1.20
2018-02-07T05:00:39.744Z,1.20
2018-02-07T05:01:39.745Z,1.10
2018-02-07T05:02:39.753Z,2.50
2018-02-07T05:03:39.752Z,1.20
2018-02-07T05:04:39.758Z,1.30
2018-02-07T05:05:39.757Z,1.10
2018-02-07T05:06:39.755Z,1.20
2018-02-07T05:07:39.759Z,1.10
2018-02-07T05:08:39.768Z,1.20
2018-02-07T05:09:39.771Z,1.20
2018-02-07T05:10:39.768Z,1.20
2018-02-07T05:11:39.771Z,1.20
2018-02-07T05:12:39.779Z,1.70
2018-02-07T05:13:39.783Z,1.50
2018-02-07T05:14:39.778Z,2.30
2018-02-07T05:15:39.788Z,1.30
2018-02-07T05:16:39.792Z,1.50
2018-02-07T05:17:39.790Z,1.40
2018-02-07T05:18:39.796Z,1.10
2018-02-07T05:19:39.799Z,1.30
2018-02-07T05:20:39.803Z,1.20
2018-02-07T05:21:39.801Z,1.10
2018-02-07T05:22:39.804Z,1.10
2018-02-07T05:23:39.805Z,1.30
2018-02-07T05:24:39.814Z,1.30
2018-02-07T05:25:39.818Z,1.10
2018-02-07T05:26:39.819Z,1.20
2018-02-07T05:27:39.822Z,1.10
2018-02-07T05:28:39.827Z,1.30
2018-02-07T05:29:39.828Z,1.30
2018-02-07T05:30:39.826Z,1.10
2018-02-07T05:31:39.835Z,1.30
2018-02-07T05:32:39.839Z,1.10
2018-02-07T05:33:39.834Z,1.10
2018-02-07T05:34:39.839Z,1.00
2018-02-07T05:35:39.847Z,1.10
2018-02-07T05:36:39.851Z,1.10
2018-02-07T05:37:39.847Z,1.20
2018-02-07T05:38:39.857Z,1.10
2018-02-07T05:39:39.858Z,3.10
2018-02-07T05:40:39.856Z,1.30
2018-02-07T05:41:39.864Z,1.60
2018-02-07T05:42:39.859Z,1.20
2018-02-07T05:43:39.868Z,1.10
2018-02-07T05:44:39.867Z,1.10
2018-02-07T05:45:39.876Z,1.10
2018-02-07T05:46:39.872Z,1.20
2018-02-07T05:47:39.879Z,1.20
2018-02-07T05:48:39.878Z,1.10
2018-02-07T05:49:39.888Z,1.30
2018-02-07T05:50:39.885Z,1.40
2018-02-07T05:51:39.898Z,1.10
2018-02-07T05:52:39.890Z,1.30
2018-02-07T05:53:39.893Z,1.80
2018-02-07T05:54:39.901Z,1.20
2018-02-07T05:55:39.898Z,1.20
2018-02-07T05:56:39.905Z,1.10
2018-02-07T05:57:39.908Z,1.20
2018-02-07T05:58:39.914Z,1.30
2018-02-07T05:59:39.909Z,1.20
2018-02-07T06:00:39.917Z,1.50
2018-02-07T06:01:39.923Z,1.10
2018-02-07T06:02:39.922Z,1.10
2018-02-07T06:03:39.919Z,1.20
2018-02-07T06:04:39.928Z,1.30
2018-02-07T06:05:39.931Z,1.30
2018-02-07T06:06:39.927Z,1.20
2018-02-07T06:07:39.934Z,1.20
2018-02-07T06:08:39.937Z,1.60
2018-02-07T06:09:39.935Z,1.20
2018-02-07T06:10:39.942Z,1.10
2018-02-07T06:11:39.939Z,1.70
2018-02-07T06:12:39.949Z,1.20
2018-02-07T06:13:39.946Z,1.40
2018-02-07T06:14:39.952Z,1.40
2018-02-07T06:15:39.951Z,1.30
2018-02-07T06:16:39.954Z,1.30
2018-02-07T06:17:39.966Z,1.20
2018-02-07T06:18:39.957Z,1.20
2018-02-07T06:19:39.967Z,2.80
2018-02-07T06:20:39.970Z,1.30
2018-02-07T06:21:39.973Z,1.20
2018-02-07T06:22:39.976Z,1.10
2018-02-07T06:23:39.972Z,1.20
2018-02-07T06:24:39.975Z,1.30
2018-02-07T06:25:39.985Z,1.30
2018-02-07T06:26:39.985Z,1.40
2018-02-07T06:27:39.991Z,1.20
2018-02-07T06:28:39.991Z,1.40
2018-02-07T06:29:39.988Z,1.50
2018-02-07T06:30:39.991Z,1.40
2018-02-07T06:31:39.993Z,1.50
2018-02-07T06:32:40.003Z,1.50
2018-02-07T06:33:40.007Z,1.30
2018-02-07T06:34:40.006Z,1.10
2018-02-07T06:35:40.005Z,1.30
2018-02-07T06:36:40.016Z,1.10
2018-02-07T06:37:40.011Z,1.30
2018-02-07T06:38:40.013Z,1.50
2018-02-07T06:39:40.015Z,1.20
2018-02-07T06:40:40.024Z,1.20
2018-02-07T06:41:40.025Z,1.30
2018-02-07T06:42:40.029Z,1.10
2018-02-07T06:43:40.035Z,1.20
2018-02-07T06:44:40.029Z,1.50
2018-02-07T06:45:40.032Z,1.30
2018-02-07T06:46:40.054Z,1.80
2018-02-07T06:47:40.038Z,1.90
2018-02-07T06:48:40.043Z,2.60
2018-02-07T06:49:40.048Z,2.20
2018-02-07T06:50:40.049Z,2.30
2018-02-07T06:51:40.064Z,2.00
2018-02-07T06:52:40.058Z,1.90
2018-02-07T06:53:40.054Z,1.70
2018-02-07T06:54:40.056Z,1.70
2018-02-07T06:55:40.064Z,1.80
2018-02-07T06:56:40.076Z,2.30
2018-02-07T06:57:40.069Z,3.00
2018-02-07T06:58:40.066Z,3.00
2018-02-07T06:59:40.067Z,4.10
2018-02-07T07:00:40.076Z,3.60
2018-02-07T07:01:40.073Z,4.40
2018-02-07T07:02:40.080Z,3.20
2018-02-07T07:03:40.080Z,3.10
2018-02-07T07:04:40.092Z,2.90
2018-02-07T07:05:40.088Z,2.60
2018-02-07T07:06:40.088Z,2.50
2018-02-07T07:07:40.088Z,2.50
2018-02-07T07:08:40.096Z,2.60
2018-02-07T07:09:40.093Z,4.20
2018-02-07T07:10:40.100Z,2.40
2018-02-07T07:11:40.101Z,1.90
2018-02-07T07:12:40.105Z,2.30
2018-02-07T07:13:40.109Z,2.60
2018-02-07T07:14:40.111Z,3.60
2018-02-07T07:15:40.114Z,3.30
2018-02-07T07:16:40.116Z,2.80
2018-02-07T07:17:40.120Z,2.20
2018-02-07T07:18:40.116Z,2.40
2018-02-07T07:19:40.124Z,2.50
2018-02-07T07:20:40.123Z,2.70
2018-02-07T07:21:40.125Z,2.30
2018-02-07T07:22:40.135Z,1.90
2018-02-07T07:23:40.131Z,2.50
2018-02-07T07:24:40.139Z,4.40
2018-02-07T07:25:40.142Z,5.40
2018-02-07T07:26:40.142Z,7.30
2018-02-07T07:27:40.145Z,9.20
2018-02-07T07:28:40.151Z,11.30
2018-02-07T07:29:40.145Z,11.00
2018-02-07T07:30:40.147Z,5.60
2018-02-07T07:31:40.152Z,2.40
2018-02-07T07:32:40.152Z,2.00
2018-02-07T07:33:40.156Z,2.40
2018-02-07T07:34:40.165Z,7.10
2018-02-07T07:35:40.167Z,11.50
2018-02-07T07:36:40.175Z,13.30
2018-02-07T07:37:40.167Z,9.70
2018-02-07T07:38:40.169Z,13.10
2018-02-07T07:39:40.176Z,7.10
2018-02-07T07:40:40.180Z,3.20
2018-02-07T07:41:40.176Z,3.30
2018-02-07T07:42:40.179Z,2.40
2018-02-07T07:43:40.184Z,3.60
2018-02-07T07:44:40.191Z,3.70
2018-02-07T07:45:40.188Z,3.90
2018-02-07T07:46:40.202Z,3.50
2018-02-07T07:47:40.198Z,3.20
2018-02-07T07:48:40.202Z,4.90
2018-02-07T07:49:40.200Z,6.40
2018-02-07T07:50:40.204Z,8.60
2018-02-07T07:51:40.208Z,11.90
2018-02-07T07:52:40.216Z,12.50
2018-02-07T07:53:40.209Z,9.10
2018-02-07T07:54:40.211Z,14.50
2018-02-07T07:55:40.217Z,12.00
2018-02-07T07:56:40.222Z,13.10
2018-02-07T07:57:40.221Z,11.70
2018-02-07T07:58:40.233Z,12.30
2018-02-07T07:59:40.230Z,12.90
2018-02-07T08:00:40.232Z,11.90
2018-02-07T08:01:40.236Z,13.00
2018-02-07T08:02:40.237Z,21.20
2018-02-07T08:03:40.239Z,33.90
2018-02-07T08:04:40.245Z,37.10
2018-02-07T08:05:40.240Z,33.90
2018-02-07T08:06:40.241Z,35.50
2018-02-07T08:07:40.246Z,520.60
2018-02-07T08:08:40.247Z,714.60
2018-02-07T08:09:40.252Z,659.50
2018-02-07T08:10:40.253Z,354.20
2018-02-07T08:11:40.262Z,99.20
2018-02-07T08:12:40.260Z,119.50
2018-02-07T08:13:40.262Z,60.10
2018-02-07T08:14:40.270Z,209.20
2018-02-07T08:15:40.270Z,319.90
2018-02-07T08:16:40.270Z,372.80
2018-02-07T08:17:40.279Z,393.80
2018-02-07T08:18:40.281Z,846.20
2018-02-07T08:19:40.277Z,789.40
2018-02-07T08:20:40.287Z,156.40
2018-02-07T08:21:40.285Z,223.80
2018-02-07T08:22:40.292Z,128.00
2018-02-07T08:23:40.295Z,234.10
2018-02-07T08:24:40.293Z,138.60
2018-02-07T08:25:40.295Z,484.50
2018-02-07T08:26:40.303Z,636.00
2018-02-07T08:27:40.301Z,845.00
2018-02-07T08:28:40.310Z,636.10
2018-02-07T08:29:40.307Z,639.20
2018-02-07T08:30:40.316Z,220.50
2018-02-07T08:31:40.313Z,534.30
2018-02-07T08:32:40.317Z,382.20
2018-02-07T08:33:40.318Z,326.10
2018-02-07T08:34:40.330Z,419.20
2018-02-07T08:35:40.325Z,538.30
2018-02-07T08:36:40.334Z,871.80
2018-02-07T08:37:40.332Z,764.10
2018-02-07T08:38:40.333Z,1310.10
2018-02-07T08:39:40.342Z,1134.60
2018-02-07T08:40:40.341Z,1521.40
2018-02-07T08:41:40.346Z,1341.70
2018-02-07T08:42:40.346Z,1546.90
2018-02-07T08:43:40.351Z,939.20
2018-02-07T08:44:40.358Z,1090.60
2018-02-07T08:45:40.355Z,1226.10
2018-02-07T08:46:40.357Z,1168.90
2018-02-07T08:47:40.362Z,1291.00
2018-02-07T08:48:40.364Z,1356.90
2018-02-07T08:49:40.366Z,1377.30
2018-02-07T08:50:40.373Z,1310.40
2018-02-07T08:51:40.381Z,1029.20
2018-02-07T08:52:40.382Z,982.60
2018-02-07T08:53:40.386Z,1029.30
2018-02-07T08:54:40.407Z,1176.50
2018-02-07T08:55:40.383Z,1226.60
2018-02-07T08:56:40.391Z,1495.30
2018-02-07T08:57:40.389Z,1331.00
2018-02-07T08:58:40.398Z,848.30
2018-02-07T08:59:40.396Z,542.20
2018-02-07T09:00:40.398Z,905.80
2018-02-07T09:01:40.409Z,1019.20
2018-02-07T09:02:40.408Z,1190.80
2018-02-07T09:03:40.407Z,964.30
2018-02-07T09:04:40.415Z,1646.10
2018-02-07T09:05:40.416Z,1418.70
2018-02-07T09:06:40.414Z,904.20
2018-02-07T09:07:40.424Z,872.00
2018-02-07T09:08:40.423Z,940.10
2018-02-07T09:09:40.429Z,1181.80
2018-02-07T09:10:40.425Z,309.40
2018-02-07T09:11:40.428Z,200.40
2018-02-07T09:12:40.433Z,544.30
2018-02-07T09:13:40.434Z,1044.00
2018-02-07T09:14:40.437Z,1029.30
2018-02-07T09:15:40.445Z,576.20
2018-02-07T09:16:40.445Z,195.90
2018-02-07T09:17:40.449Z,503.30
2018-02-07T09:18:40.450Z,168.80
2018-02-07T09:19:40.452Z,297.10
2018-02-07T09:20:40.457Z,182.70
2018-02-07T09:21:40.464Z,336.60
2018-02-07T09:22:40.483Z,543.40
2018-02-07T09:23:40.466Z,735.50
2018-02-07T09:24:40.503Z,553.80
2018-02-07T09:25:40.473Z,1014.10
2018-02-07T09:26:40.482Z,809.50
2018-02-07T09:27:40.486Z,405.80
2018-02-07T09:28:40.484Z,722.50
2018-02-07T09:29:40.486Z,604.00
2018-02-07T09:30:40.495Z,1419.70
2018-02-07T09:31:40.497Z,1109.10
2018-02-07T09:32:40.506Z,1166.20
2018-02-07T09:33:40.504Z,795.10
2018-02-07T09:34:40.509Z,627.70
2018-02-07T09:35:40.530Z,224.10
2018-02-07T09:36:40.519Z,403.60
2018-02-07T09:37:40.515Z,96.00
2018-02-07T09:38:40.524Z,123.30
2018-02-07T09:39:40.524Z,510.40
2018-02-07T09:40:40.533Z,575.20
2018-02-07T09:41:40.537Z,495.50
2018-02-07T09:42:40.532Z,506.90
2018-02-07T09:43:40.541Z,756.50
2018-02-07T09:44:40.540Z,826.20
2018-02-07T09:45:40.551Z,514.00
2018-02-07T09:46:40.553Z,672.70
2018-02-07T09:47:40.558Z,908.30
2018-02-07T09:48:40.557Z,817.70
2018-02-07T09:49:40.566Z,664.20
2018-02-07T09:50:40.569Z,500.40
2018-02-07T09:51:40.586Z,764.30
2018-02-07T09:52:40.582Z,811.30
2018-02-07T09:53:40.580Z,624.00
2018-02-07T09:54:40.583Z,684.10
2018-02-07T09:55:40.582Z,408.90
2018-02-07T09:56:40.592Z,855.40
2018-02-07T09:57:40.596Z,1017.10
2018-02-07T09:58:40.593Z,1460.60
2018-02-07T09:59:40.603Z,807.40
2018-02-07T10:00:40.602Z,689.00
2018-02-07T10:01:40.615Z,965.10
2018-02-07T10:02:40.615Z,948.40
2018-02-07T10:03:40.619Z,642.80
2018-02-07T10:04:40.618Z,1099.60
2018-02-07T10:05:40.623Z,1879.80
2018-02-07T10:06:40.625Z,607.60
2018-02-07T10:07:40.628Z,567.20
2018-02-07T10:08:40.652Z,969.40
2018-02-07T10:09:40.645Z,646.10
2018-02-07T10:10:40.646Z,895.70
2018-02-07T10:11:40.644Z,724.40
2018-02-07T10:12:40.670Z,552.00
2018-02-07T10:13:40.692Z,1168.40
2018-02-07T10:14:40.654Z,929.70
2018-02-07T10:15:40.664Z,1414.50
2018-02-07T10:16:40.665Z,1897.80
2018-02-07T10:17:40.667Z,1737.20
2018-02-07T10:18:40.678Z,1273.00
2018-02-07T10:19:40.677Z,1415.40
2018-02-07T10:20:40.681Z,1361.00
2018-02-07T10:21:40.688Z,1391.60
2018-02-07T10:22:40.735Z,1590.40
2018-02-07T10:23:40.693Z,900.60
2018-02-07T10:24:40.702Z,742.70
2018-02-07T10:25:40.705Z,799.20
2018-02-07T10:26:40.706Z,613.00
2018-02-07T10:27:40.717Z,757.10
2018-02-07T10:28:40.710Z,1044.20
2018-02-07T10:29:40.723Z,283.90
2018-02-07T10:30:40.722Z,347.80
2018-02-07T10:31:40.730Z,467.00
2018-02-07T10:32:40.731Z,474.00
2018-02-07T10:33:40.731Z,496.00
2018-02-07T10:34:40.736Z,656.60
2018-02-07T10:35:40.736Z,706.90
2018-02-07T10:36:40.740Z,877.70
2018-02-07T10:37:40.750Z,449.10
2018-02-07T10:38:40.751Z,896.00
2018-02-07T10:39:40.749Z,506.00
2018-02-07T10:40:40.755Z,1123.00
2018-02-07T10:41:40.763Z,758.20
2018-02-07T10:42:40.767Z,1167.30
2018-02-07T10:43:40.772Z,458.40
2018-02-07T10:44:40.774Z,151.10
2018-02-07T10:45:40.779Z,261.80
2018-02-07T10:46:40.784Z,584.90
2018-02-07T10:47:40.786Z,470.50
2018-02-07T10:48:40.784Z,485.40
2018-02-07T10:49:40.792Z,358.40
2018-02-07T10:50:40.798Z,91.90
2018-02-07T10:51:40.803Z,439.80
2018-02-07T10:52:40.811Z,671.40
2018-02-07T10:53:40.811Z,421.40
2018-02-07T10:54:40.815Z,210.00
2018-02-07T10:55:40.813Z,165.60
2018-02-07T10:56:40.818Z,176.50
2018-02-07T10:57:40.823Z,726.10
2018-02-07T10:58:40.824Z,729.20
2018-02-07T10:59:40.828Z,730.40
2018-02-07T11:00:40.833Z,702.10
2018-02-07T11:01:40.842Z,1121.70
2018-02-07T11:02:40.846Z,1271.70
2018-02-07T11:03:40.844Z,1173.30
2018-02-07T11:04:40.848Z,1104.30
2018-02-07T11:05:40.861Z,1686.10
2018-02-07T11:06:40.856Z,1082.20
2018-02-07T11:07:40.864Z,1121.40
2018-02-07T11:08:40.868Z,607.30
2018-02-07T11:09:40.869Z,878.20
2018-02-07T11:10:40.872Z,197.20
2018-02-07T11:11:40.879Z,131.10
2018-02-07T11:12:40.886Z,149.50
2018-02-07T11:13:40.886Z,157.90
2018-02-07T11:14:40.887Z,213.60
2018-02-07T11:15:40.898Z,403.40
2018-02-07T11:16:40.901Z,303.40
2018-02-07T11:17:40.900Z,254.60
2018-02-07T11:18:40.906Z,48.00
2018-02-07T11:19:40.916Z,389.60
2018-02-07T11:20:40.918Z,314.70
2018-02-07T11:21:40.921Z,239.90
2018-02-07T11:22:40.929Z,334.00
2018-02-07T11:23:40.931Z,199.10
2018-02-07T11:24:40.932Z,395.70
2018-02-07T11:25:40.936Z,235.60
2018-02-07T11:26:40.940Z,108.70
2018-02-07T11:27:40.948Z,141.00
2018-02-07T11:28:40.949Z,133.80
2018-02-07T11:29:40.956Z,404.80
2018-02-07T11:30:40.963Z,281.70
2018-02-07T11:31:40.963Z,302.10
2018-02-07T11:32:40.972Z,257.30
2018-02-07T11:33:40.977Z,689.70
2018-02-07T11:34:40.975Z,626.60
2018-02-07T11:35:40.987Z,267.70
2018-02-07T11:36:40.991Z,204.90
2018-02-07T11:37:41.004Z,449.90
2018-02-07T11:38:41.004Z,655.50
2018-02-07T11:39:41.005Z,544.80
2018-02-07T11:40:41.012Z,146.50
2018-02-07T11:41:41.014Z,136.00
2018-02-07T11:42:41.020Z,260.70
2018-02-07T11:43:41.018Z,708.00
2018-02-07T11:44:41.028Z,459.50
2018-02-07T11:45:41.031Z,383.20
2018-02-07T11:46:41.031Z,355.80
2018-02-07T11:47:41.037Z,303.50
2018-02-07T11:48:41.047Z,491.60
2018-02-07T11:49:41.047Z,425.50
2018-02-07T11:50:41.060Z,331.20
2018-02-07T11:51:41.061Z,160.50
2018-02-07T11:52:41.062Z,99.20
2018-02-07T11:53:41.066Z,303.40
2018-02-07T11:54:41.072Z,303.10
2018-02-07T11:55:41.076Z,722.80
2018-02-07T11:56:41.080Z,516.10
2018-02-07T11:57:41.087Z,227.20
2018-02-07T11:58:41.094Z,162.70
2018-02-07T11:59:41.100Z,58.90
2018-02-07T12:00:41.103Z,70.70
2018-02-07T12:01:41.106Z,180.50
2018-02-07T12:02:41.119Z,85.30
2018-02-07T12:03:41.114Z,37.60
2018-02-07T12:04:41.149Z,274.90
2018-02-07T12:05:41.125Z,981.50
2018-02-07T12:06:41.134Z,609.10
2018-02-07T12:07:41.134Z,1748.90
2018-02-07T12:08:41.146Z,458.90
2018-02-07T12:09:41.150Z,117.50
2018-02-07T12:10:41.149Z,330.10
2018-02-07T12:11:41.155Z,423.80
2018-02-07T12:12:41.161Z,266.50
2018-02-07T12:13:41.165Z,1093.90
2018-02-07T12:14:41.168Z,408.10
2018-02-07T12:15:41.181Z,356.40
2018-02-07T12:16:41.183Z,601.90
2018-02-07T12:17:41.189Z,641.00
2018-02-07T12:18:41.190Z,932.90
2018-02-07T12:19:41.197Z,606.60
2018-02-07T12:20:41.204Z,1166.80
2018-02-07T12:21:41.203Z,738.30
2018-02-07T12:22:41.206Z,297.80
2018-02-07T12:23:41.212Z,372.00
2018-02-07T12:24:41.220Z,1999.90
2018-02-07T12:25:41.227Z,1489.50
2018-02-07T12:26:41.233Z,1431.20
2018-02-07T12:27:41.234Z,648.20
2018-02-07T12:28:41.233Z,724.40
2018-02-07T12:29:41.245Z,343.00
2018-02-07T12:30:41.248Z,964.30
2018-02-07T12:31:41.253Z,1289.90
2018-02-07T12:32:41.255Z,404.30
2018-02-07T12:33:41.262Z,957.60
2018-02-07T12:34:41.264Z,367.90
2018-02-07T12:35:41.261Z,191.30
2018-02-07T12:36:41.267Z,635.80
2018-02-07T12:37:41.275Z,356.60
2018-02-07T12:38:41.279Z,559.50
2018-02-07T12:39:41.281Z,559.60
2018-02-07T12:40:41.285Z,180.10
2018-02-07T12:41:41.288Z,175.80
2018-02-07T12:42:41.287Z,129.70
2018-02-07T12:43:41.290Z,94.30
2018-02-07T12:44:41.295Z,80.70
2018-02-07T12:45:41.303Z,245.30
2018-02-07T12:46:41.306Z,554.50
2018-02-07T12:47:41.305Z,1118.70
2018-02-07T12:48:41.308Z,817.50
2018-02-07T12:49:41.318Z,325.00
2018-02-07T12:50:41.316Z,180.80
2018-02-07T12:51:41.325Z,153.70
2018-02-07T12:52:41.329Z,77.20
2018-02-07T12:53:41.336Z,235.00
2018-02-07T12:54:41.331Z,1122.00
2018-02-07T12:55:41.339Z,607.40
2018-02-07T12:56:41.338Z,458.20